Time;durP1;ratioP1;P1;durP2;ratioP2;P2;SDS_P1;SDS_P2;PMS_P1;PMS_P2;Temp;Humidity;BMP_temperature;BMP_pressure;BME280_temperature;BME280_humidity;BME280_pressure;Samples;Min_cycle;Max_cycle;Signal;HPM_P1;HPM_P2
2021/12/15 00:01:59;;;;;;;250.63;230.87;;;10.50;99.90;;;;;;5027583;28;20218;-80
2021/12/15 00:04:25;;;;;;;245.63;226.10;;;10.40;99.90;;;;;;5003176;28;20742;-80
2021/12/15 00:06:51;;;;;;;251.70;232.17;;;10.50;99.90;;;;;;5010808;28;20198;-79
2021/12/15 00:09:17;;;;;;;245.37;225.93;;;10.50;99.90;;;;;;5027133;28;20215;-79
2021/12/15 00:11:43;;;;;;;245.53;226.03;;;10.50;99.90;;;;;;5026571;28;20177;-80
2021/12/15 00:14:11;;;;;;;241.97;223.07;;;10.40;99.90;;;;;;5010296;28;20191;-80
2021/12/15 00:16:37;;;;;;;233.20;214.03;;;10.50;99.90;;;;;;5028255;28;20187;-80
2021/12/15 00:19:05;;;;;;;243.10;223.93;;;10.50;99.90;;;;;;5028562;28;20211;-79
2021/12/15 00:21:31;;;;;;;244.10;225.13;;;10.40;99.90;;;;;;5010379;28;20282;-80
2021/12/15 00:23:57;;;;;;;244.20;225.30;;;10.40;99.90;;;;;;5027363;28;20186;-80
2021/12/15 00:26:23;;;;;;;244.67;225.90;;;10.40;99.90;;;;;;5009905;28;20199;-80
2021/12/15 00:28:50;;;;;;;243.60;224.57;;;10.40;99.90;;;;;;5043085;28;20269;-79
2021/12/15 00:31:17;;;;;;;242.93;224.23;;;10.40;99.90;;;;;;5010336;28;20667;-80
2021/12/15 00:33:44;;;;;;;239.13;219.83;;;10.40;99.90;;;;;;5009084;28;20199;-79
2021/12/15 00:36:10;;;;;;;239.07;220.13;;;10.40;99.90;;;;;;5027908;28;20202;-79
2021/12/15 00:38:37;;;;;;;240.47;221.50;;;10.40;99.90;;;;;;5011143;28;20233;-79
2021/12/15 00:41:04;;;;;;;239.90;221.30;;;10.40;99.90;;;;;;5028409;28;20183;-79
2021/12/15 00:43:30;;;;;;;241.70;222.80;;;10.40;99.90;;;;;;5020973;28;20210;-80
2021/12/15 00:45:55;;;;;;;237.00;218.60;;;10.40;99.90;;;;;;5025499;28;20680;-80
2021/12/15 00:48:21;;;;;;;231.37;213.07;;;10.40;99.90;;;;;;5013347;28;20219;-80
2021/12/15 00:50:47;;;;;;;240.37;221.07;;;10.50;99.90;;;;;;5028959;28;20239;-79
2021/12/15 00:53:14;;;;;;;241.60;223.00;;;10.40;99.90;;;;;;5013707;28;20186;-81
2021/12/15 00:55:43;;;;;;;240.53;222.00;;;10.50;99.90;;;;;;5030405;28;20290;-79
2021/12/15 00:58:09;;;;;;;237.93;219.60;;;10.50;99.90;;;;;;5040574;28;20183;-79
2021/12/15 01:00:39;;;;;;;233.33;214.97;;;10.50;99.90;;;;;;5030438;28;20781;-80
2021/12/15 01:03:06;;;;;;;233.57;215.00;;;10.50;99.90;;;;;;5030177;28;20170;-79
2021/12/15 01:05:35;;;;;;;232.10;213.90;;;10.40;99.90;;;;;;5014187;28;20211;-80
2021/12/15 01:08:04;;;;;;;230.77;212.27;;;10.40;99.90;;;;;;5029007;28;20175;-80
2021/12/15 01:10:44;;;;;;;232.30;214.20;;;10.40;99.90;;;;;;5032404;28;20211;-79
2021/12/15 01:21:16;;;;;;;235.37;216.57;;;10.50;99.90;;;;;;5031800;28;20561;-79
2021/12/15 01:23:42;;;;;;;229.33;211.17;;;10.50;99.90;;;;;;5013075;28;20191;-79
2021/12/15 01:26:11;;;;;;;228.70;210.77;;;10.40;99.90;;;;;;5014191;28;20191;-79
2021/12/15 01:28:37;;;;;;;228.37;210.37;;;10.40;99.90;;;;;;5029930;28;20195;-80
2021/12/15 01:31:05;;;;;;;228.63;210.63;;;10.40;99.90;;;;;;5029387;28;20183;-80
2021/12/15 01:33:32;;;;;;;228.70;210.50;;;10.40;99.90;;;;;;5030642;28;20190;-79
2021/12/15 01:36:05;;;;;;;225.27;207.47;;;10.40;99.90;;;;;;4998389;28;20194;-79
2021/12/15 01:38:32;;;;;;;224.97;207.53;;;10.40;99.90;;;;;;5031861;28;20287;-79
2021/12/15 01:40:59;;;;;;;224.50;206.17;;;10.40;99.90;;;;;;5030824;28;20179;-79
2021/12/15 01:49:17;;;;;;;229.57;212.23;;;10.40;99.90;;;;;;5032599;28;20258;-79
2021/12/15 01:51:44;;;;;;;225.77;208.07;;;10.40;99.90;;;;;;5031414;28;20186;-79
2021/12/15 01:54:10;;;;;;;218.53;201.63;;;10.40;99.90;;;;;;5048922;28;20252;-79
2021/12/15 01:56:36;;;;;;;219.13;201.80;;;10.40;99.90;;;;;;5031354;28;20282;-80
2021/12/15 01:59:03;;;;;;;225.33;208.30;;;10.40;99.90;;;;;;5033215;28;20273;-78
2021/12/15 02:01:29;;;;;;;222.70;205.00;;;10.40;99.90;;;;;;5017526;28;20275;-79
2021/12/15 02:03:55;;;;;;;225.90;208.47;;;10.40;99.90;;;;;;5033136;28;20224;-79
2021/12/15 02:06:21;;;;;;;212.53;195.30;;;10.40;99.90;;;;;;5015064;28;20744;-79
2021/12/15 02:08:48;;;;;;;216.93;199.37;;;10.40;99.90;;;;;;5033409;28;20210;-79
2021/12/15 02:11:14;;;;;;;225.83;207.90;;;10.40;99.90;;;;;;5031866;28;20465;-78
2021/12/15 02:13:40;;;;;;;226.27;208.73;;;10.40;99.90;;;;;;5032739;28;20228;-80
2021/12/15 02:16:07;;;;;;;226.50;209.00;;;10.40;99.90;;;;;;5028917;28;20671;-79
2021/12/15 02:18:37;;;;;;;220.03;202.43;;;10.40;99.90;;;;;;5033044;28;20697;-79
2021/12/15 02:21:08;;;;;;;220.73;203.73;;;10.40;99.90;;;;;;5050606;28;20639;-78
2021/12/15 02:23:41;;;;;;;222.50;205.17;;;10.40;99.90;;;;;;5032318;28;20666;-79
2021/12/15 02:26:14;;;;;;;215.07;198.23;;;10.40;99.90;;;;;;5031707;28;20646;-80
2021/12/15 02:28:42;;;;;;;220.73;203.67;;;10.40;99.90;;;;;;5049852;28;20233;-80
2021/12/15 02:31:19;;;;;;;220.90;203.73;;;10.40;99.90;;;;;;5031451;28;20178;-80
2021/12/15 02:39:02;;;;;;;208.20;191.70;;;10.40;99.90;;;;;;5036041;28;20252;-79
2021/12/15 02:41:30;;;;;;;209.77;193.00;;;10.40;99.90;;;;;;5049810;28;20189;-80
2021/12/15 02:44:17;;;;;;;211.07;194.63;;;10.40;99.90;;;;;;5015076;28;20197;-79
2021/12/15 02:46:43;;;;;;;210.00;193.77;;;10.40;99.90;;;;;;5033398;28;20931;-79
2021/12/15 02:49:12;;;;;;;208.10;192.03;;;10.40;99.90;;;;;;5049895;28;20242;-79
2021/12/15 02:51:40;;;;;;;206.07;189.63;;;10.40;99.90;;;;;;5032501;28;20232;-79
2021/12/15 02:54:07;;;;;;;202.93;186.37;;;10.40;99.90;;;;;;5032885;28;20186;-80
2021/12/15 02:56:34;;;;;;;207.47;191.30;;;10.40;99.90;;;;;;5015728;28;20193;-78
2021/12/15 02:59:04;;;;;;;208.77;192.43;;;10.40;99.90;;;;;;5015698;28;20214;-80
2021/12/15 03:02:00;;;;;;;207.90;191.50;;;10.40;99.90;;;;;;5049024;28;20181;-80
2021/12/15 03:07:52;;;;;;;204.47;188.13;;;10.40;99.90;;;;;;5049875;28;20213;-79
2021/12/15 03:17:55;;;;;;;198.80;183.27;;;10.40;99.90;;;;;;5032511;28;20187;-79
2021/12/15 03:20:22;;;;;;;202.47;186.67;;;10.40;99.90;;;;;;5049992;28;21022;-80
2021/12/15 03:22:50;;;;;;;198.40;182.57;;;10.40;99.90;;;;;;5030493;28;20216;-79
2021/12/15 03:25:16;;;;;;;202.70;187.03;;;10.40;99.90;;;;;;5016780;28;20679;-79
2021/12/15 03:36:06;;;;;;;200.60;184.87;;;10.40;99.90;;;;;;5035400;28;20236;-78
2021/12/15 03:38:34;;;;;;;197.83;182.23;;;10.40;99.90;;;;;;5032369;28;20178;-79
2021/12/15 03:41:01;;;;;;;194.57;178.60;;;10.40;99.90;;;;;;5031736;28;20182;-79
2021/12/15 03:43:27;;;;;;;193.13;177.37;;;10.50;99.90;;;;;;5015383;28;20189;-81
2021/12/15 03:45:59;;;;;;;200.90;184.77;;;10.50;99.90;;;;;;5047944;28;20186;-79
2021/12/15 03:48:34;;;;;;;200.27;184.63;;;10.50;99.90;;;;;;5008695;28;20186;-80
2021/12/15 03:51:00;;;;;;;199.77;183.83;;;10.50;99.90;;;;;;5031044;28;20300;-79
2021/12/15 03:53:27;;;;;;;202.60;185.77;;;10.50;99.90;;;;;;5031242;28;20589;-80
2021/12/15 03:55:53;;;;;;;198.63;182.40;;;10.50;99.90;;;;;;5030372;28;20239;-79
2021/12/15 03:58:22;;;;;;;195.87;178.67;;;10.50;99.90;;;;;;5030937;28;20233;-79
2021/12/15 04:00:58;;;;;;;197.87;182.13;;;10.50;99.90;;;;;;5031675;28;20179;-79
2021/12/15 04:03:34;;;;;;;191.90;176.47;;;10.50;99.90;;;;;;5049533;28;20281;-79
2021/12/15 04:06:03;;;;;;;196.10;179.73;;;10.50;99.90;;;;;;5049345;28;20831;-79
2021/12/15 04:08:29;;;;;;;190.30;175.20;;;10.50;99.90;;;;;;5030959;28;20189;-80
2021/12/15 04:10:57;;;;;;;190.33;174.93;;;10.50;99.90;;;;;;5016194;28;20186;-79
2021/12/15 04:13:23;;;;;;;193.27;177.30;;;10.50;99.90;;;;;;5031805;28;20205;-80
2021/12/15 04:16:03;;;;;;;194.10;178.27;;;10.50;99.90;;;;;;5047379;28;20182;-80
2021/12/15 04:18:29;;;;;;;188.50;172.43;;;10.50;99.90;;;;;;5011526;28;20170;-80
2021/12/15 04:20:55;;;;;;;183.10;168.10;;;10.50;99.90;;;;;;5032855;28;20197;-79
2021/12/15 04:23:21;;;;;;;194.43;178.47;;;10.50;99.90;;;;;;5018996;28;20239;-79
2021/12/15 04:25:51;;;;;;;183.67;168.23;;;10.50;99.90;;;;;;5051434;28;20182;-80
2021/12/15 04:28:34;;;;;;;188.47;172.30;;;10.50;99.90;;;;;;5054220;28;20191;-80
2021/12/15 04:31:04;;;;;;;187.13;171.50;;;10.50;99.90;;;;;;5028450;28;20178;-80
2021/12/15 04:33:33;;;;;;;186.03;170.00;;;10.50;99.90;;;;;;5028673;28;20651;-80
2021/12/15 04:36:01;;;;;;;190.33;174.50;;;10.50;99.90;;;;;;5035392;28;20754;-79
2021/12/15 04:38:30;;;;;;;186.77;170.80;;;10.50;99.90;;;;;;5019133;28;20678;-79
2021/12/15 04:40:59;;;;;;;188.10;172.33;;;10.50;99.90;;;;;;5035252;28;20190;-80
2021/12/15 04:43:29;;;;;;;188.73;172.67;;;10.40;99.90;;;;;;5011962;28;20217;-80
2021/12/15 04:45:55;;;;;;;187.90;172.10;;;10.50;99.90;;;;;;5033556;28;20762;-79
2021/12/15 04:48:21;;;;;;;186.97;171.10;;;10.50;99.90;;;;;;5011921;28;20187;-80
2021/12/15 04:50:48;;;;;;;189.53;173.10;;;10.50;99.90;;;;;;5019148;28;20317;-79
2021/12/15 04:53:14;;;;;;;193.63;177.37;;;10.50;99.90;;;;;;5018799;28;20273;-79
2021/12/15 04:55:41;;;;;;;186.20;169.30;;;10.50;99.90;;;;;;5018642;28;20273;-79
2021/12/15 04:58:09;;;;;;;181.97;166.43;;;10.50;99.90;;;;;;5035924;28;20194;-79
2021/12/15 05:00:41;;;;;;;187.90;171.80;;;10.50;99.90;;;;;;5050863;28;20232;-78
2021/12/15 05:03:06;;;;;;;184.37;169.27;;;10.50;99.90;;;;;;5028109;28;20174;-80
2021/12/15 05:05:34;;;;;;;183.90;167.77;;;10.50;99.90;;;;;;5035308;28;20208;-80
2021/12/15 05:08:00;;;;;;;179.57;164.27;;;10.50;99.90;;;;;;5017798;28;20240;-80
2021/12/15 05:10:26;;;;;;;184.07;168.13;;;10.50;99.90;;;;;;5034533;28;20225;-80
2021/12/15 05:12:52;;;;;;;186.23;170.30;;;10.50;99.90;;;;;;5032992;28;20226;-80
2021/12/15 05:15:19;;;;;;;181.43;165.60;;;10.50;99.90;;;;;;5025965;28;20213;-79
2021/12/15 05:17:45;;;;;;;185.20;168.57;;;10.50;99.90;;;;;;5031838;28;20730;-79
2021/12/15 05:20:11;;;;;;;186.33;169.63;;;10.50;99.90;;;;;;5034350;28;20293;-79
2021/12/15 05:22:39;;;;;;;185.27;168.73;;;10.50;99.90;;;;;;5052083;28;20190;-79
2021/12/15 05:25:07;;;;;;;186.63;170.03;;;10.50;99.90;;;;;;5042908;28;20186;-79
2021/12/15 05:27:34;;;;;;;183.73;167.10;;;10.50;99.90;;;;;;5032378;28;20197;-78
2021/12/15 05:30:00;;;;;;;186.47;169.90;;;10.50;99.90;;;;;;5033035;28;20309;-80
2021/12/15 05:32:26;;;;;;;183.77;167.70;;;10.50;99.90;;;;;;5015615;28;20301;-81
2021/12/15 05:34:57;;;;;;;183.13;166.73;;;10.50;99.90;;;;;;5015283;28;20229;-78
2021/12/15 05:37:23;;;;;;;185.10;168.27;;;10.50;99.90;;;;;;5049170;28;20192;-79
2021/12/15 05:39:51;;;;;;;189.67;172.63;;;10.50;99.90;;;;;;5033695;28;20182;-79
2021/12/15 05:42:19;;;;;;;183.10;166.27;;;10.50;99.90;;;;;;5034074;28;20193;-80
2021/12/15 05:44:46;;;;;;;183.07;166.13;;;10.50;99.90;;;;;;5042781;28;20269;-79
2021/12/15 05:47:12;;;;;;;186.13;168.80;;;10.50;99.90;;;;;;5017098;28;20315;-80
2021/12/15 05:49:39;;;;;;;181.10;164.30;;;10.50;99.90;;;;;;5032956;28;20234;-80
2021/12/15 05:52:05;;;;;;;180.77;164.03;;;10.50;99.90;;;;;;5032867;28;20194;-81
2021/12/15 05:54:31;;;;;;;184.33;166.63;;;10.50;99.90;;;;;;5032995;28;20186;-81
2021/12/15 05:56:58;;;;;;;180.83;164.17;;;10.50;99.90;;;;;;5011991;28;20209;-80
2021/12/15 05:59:24;;;;;;;181.10;163.30;;;10.50;99.90;;;;;;5032648;28;20218;-80
2021/12/15 06:01:49;;;;;;;188.47;171.50;;;10.50;99.90;;;;;;5049646;28;20789;-80
2021/12/15 06:04:15;;;;;;;183.40;166.20;;;10.50;99.90;;;;;;5032538;28;20217;-80
2021/12/15 06:06:41;;;;;;;178.90;162.20;;;10.50;99.90;;;;;;5015220;28;20682;-79
2021/12/15 06:09:09;;;;;;;180.13;163.37;;;10.50;99.90;;;;;;5050789;28;20987;-80
2021/12/15 06:11:36;;;;;;;179.47;163.10;;;10.50;99.90;;;;;;5025360;28;20186;-78
2021/12/15 06:14:02;;;;;;;180.67;164.40;;;10.50;99.90;;;;;;5032126;28;20770;-79
2021/12/15 06:16:28;;;;;;;181.17;164.93;;;10.60;99.90;;;;;;5029720;28;20670;-80
2021/12/15 06:18:53;;;;;;;181.27;164.83;;;10.60;99.90;;;;;;5036809;28;20246;-78
2021/12/15 06:21:20;;;;;;;183.47;166.97;;;10.60;99.90;;;;;;5032860;28;20190;-79
2021/12/15 06:23:48;;;;;;;179.47;163.47;;;10.60;99.90;;;;;;5012912;28;20198;-79
2021/12/15 06:26:15;;;;;;;176.60;161.13;;;10.60;99.90;;;;;;5015248;28;20285;-79
2021/12/15 06:28:41;;;;;;;173.70;158.20;;;10.60;99.90;;;;;;5031345;28;20225;-78
2021/12/15 06:31:10;;;;;;;176.73;160.87;;;10.60;99.90;;;;;;5007584;28;20664;-79
2021/12/15 06:33:38;;;;;;;178.30;162.13;;;10.60;99.90;;;;;;5014860;28;20186;-80
2021/12/15 06:36:05;;;;;;;180.47;163.73;;;10.60;99.90;;;;;;5043441;28;20224;-79
2021/12/15 06:38:36;;;;;;;178.33;162.00;;;10.60;99.90;;;;;;5014807;28;20277;-79
2021/12/15 06:41:05;;;;;;;175.23;160.00;;;10.60;99.90;;;;;;5047587;28;20201;-79
2021/12/15 06:43:31;;;;;;;180.20;163.57;;;10.60;99.90;;;;;;5049536;28;20619;-78
2021/12/15 06:47:00;;;;;;;176.63;160.40;;;10.60;99.90;;;;;;5016691;28;20241;-79
2021/12/15 06:59:45;;;;;;;182.90;166.03;;;10.60;99.90;;;;;;5049272;28;20267;-79
2021/12/15 07:02:11;;;;;;;182.57;166.40;;;10.60;99.90;;;;;;5006541;28;20186;-80
2021/12/15 07:04:37;;;;;;;180.30;163.93;;;10.60;99.90;;;;;;5049903;28;20281;-80
2021/12/15 07:07:04;;;;;;;176.90;161.47;;;10.60;99.90;;;;;;5015810;28;20271;-80
2021/12/15 07:09:31;;;;;;;179.70;163.83;;;10.60;99.90;;;;;;5032960;28;20210;-81
2021/12/15 07:11:57;;;;;;;177.57;161.70;;;10.60;99.90;;;;;;5048469;28;20698;-79
2021/12/15 07:14:24;;;;;;;177.60;161.77;;;10.60;99.90;;;;;;5015591;28;20310;-79
2021/12/15 07:16:52;;;;;;;178.63;162.73;;;10.60;99.90;;;;;;5015394;28;20794;-80
2021/12/15 07:19:33;;;;;;;180.07;163.87;;;10.60;99.90;;;;;;5031693;28;20205;-79
2021/12/15 07:22:28;;;;;;;179.80;163.63;;;10.60;99.90;;;;;;5011318;28;20192;-79
2021/12/15 07:24:54;;;;;;;174.37;158.67;;;10.60;99.90;;;;;;5041215;28;20617;-80
2021/12/15 07:27:20;;;;;;;177.27;161.30;;;10.70;99.90;;;;;;5032200;28;20312;-79
2021/12/15 07:29:45;;;;;;;176.03;160.70;;;10.70;99.90;;;;;;5016249;28;20218;-80
2021/12/15 07:32:11;;;;;;;177.50;161.83;;;10.70;99.90;;;;;;5000239;28;20699;-81
2021/12/15 07:34:37;;;;;;;177.83;161.80;;;10.70;99.90;;;;;;5015342;28;20299;-81
2021/12/15 07:37:03;;;;;;;176.17;160.73;;;10.60;99.90;;;;;;5031218;28;20182;-80
2021/12/15 07:39:29;;;;;;;179.33;163.20;;;10.70;99.90;;;;;;4999419;28;20347;-79
2021/12/15 07:42:04;;;;;;;180.57;164.77;;;10.60;99.90;;;;;;5030294;28;20766;-81
2021/12/15 07:44:31;;;;;;;176.27;160.80;;;10.70;99.90;;;;;;5016272;28;20559;-81
2021/12/15 07:46:57;;;;;;;184.57;169.00;;;10.70;99.90;;;;;;5030456;28;20206;-81
2021/12/15 07:49:25;;;;;;;178.37;163.10;;;10.70;99.90;;;;;;5028495;28;20225;-80
2021/12/15 07:51:59;;;;;;;182.70;166.67;;;10.70;99.90;;;;;;5047619;28;20279;-81
2021/12/15 07:54:25;;;;;;;181.33;165.30;;;10.70;99.90;;;;;;5044152;28;20173;-80
2021/12/15 07:56:51;;;;;;;180.93;164.70;;;10.70;99.90;;;;;;5029242;28;20759;-80
2021/12/15 07:59:17;;;;;;;174.90;159.63;;;10.70;99.90;;;;;;5014544;28;20274;-79
2021/12/15 08:01:43;;;;;;;177.13;161.40;;;10.70;99.90;;;;;;5012144;28;20192;-80
2021/12/15 08:04:09;;;;;;;182.00;166.60;;;10.70;99.90;;;;;;5013937;28;20267;-80
2021/12/15 08:06:34;;;;;;;172.20;157.47;;;10.70;99.90;;;;;;5015163;28;20671;-80
2021/12/15 08:09:00;;;;;;;176.17;160.67;;;10.80;99.90;;;;;;5013716;28;20325;-81
2021/12/15 08:11:26;;;;;;;176.20;160.87;;;10.80;99.90;;;;;;5030128;28;20189;-80
2021/12/15 08:13:51;;;;;;;174.60;159.90;;;10.80;99.90;;;;;;5014072;28;20298;-80
2021/12/15 08:16:19;;;;;;;175.87;160.43;;;10.80;99.90;;;;;;5013261;28;20940;-80
2021/12/15 08:18:46;;;;;;;177.50;161.50;;;10.80;99.90;;;;;;5030790;28;20195;-81
2021/12/15 08:21:13;;;;;;;173.90;158.80;;;10.80;99.90;;;;;;5025585;28;20186;-80
2021/12/15 08:23:38;;;;;;;173.73;158.37;;;10.80;99.90;;;;;;5029493;28;20194;-79
2021/12/15 08:26:05;;;;;;;174.80;159.83;;;10.80;99.90;;;;;;4996287;28;20798;-80
2021/12/15 08:28:31;;;;;;;179.00;163.83;;;10.80;99.90;;;;;;5048332;28;20232;-79
2021/12/15 08:30:59;;;;;;;175.47;160.70;;;10.80;99.90;;;;;;5047062;28;20681;-80
2021/12/15 08:33:26;;;;;;;174.20;160.00;;;10.80;99.90;;;;;;5028983;28;20721;-80
2021/12/15 08:35:58;;;;;;;177.90;163.60;;;10.90;99.90;;;;;;5029660;28;20201;-80
2021/12/15 08:38:26;;;;;;;175.03;160.40;;;10.90;99.90;;;;;;5048224;28;20185;-80
2021/12/15 08:40:52;;;;;;;174.40;160.03;;;10.90;99.90;;;;;;5029523;28;20734;-80
2021/12/15 08:43:19;;;;;;;174.27;159.87;;;10.90;99.90;;;;;;5029550;28;20318;-79
2021/12/15 08:45:52;;;;;;;174.30;159.83;;;10.90;99.90;;;;;;5028653;28;20194;-80
2021/12/15 08:48:18;;;;;;;172.00;158.07;;;10.90;99.90;;;;;;5028653;28;20266;-80
2021/12/15 08:50:45;;;;;;;173.20;158.97;;;10.90;99.90;;;;;;5026628;28;20234;-80
2021/12/15 08:53:12;;;;;;;166.97;153.93;;;10.90;99.90;;;;;;4990684;28;20189;-79
2021/12/15 08:55:44;;;;;;;169.80;156.13;;;10.90;99.90;;;;;;5030301;28;20193;-80
2021/12/15 08:58:12;;;;;;;170.10;156.63;;;10.90;99.90;;;;;;5029777;28;20178;-81
2021/12/15 09:00:40;;;;;;;168.33;155.10;;;10.90;99.90;;;;;;5029851;28;20191;-79
2021/12/15 09:03:05;;;;;;;163.70;150.63;;;10.90;99.90;;;;;;5014938;28;20194;-80
2021/12/15 09:05:31;;;;;;;165.53;153.07;;;10.90;99.90;;;;;;5029725;28;20256;-79
2021/12/15 09:07:59;;;;;;;168.47;155.10;;;10.90;99.90;;;;;;5046582;28;20198;-81
2021/12/15 09:10:28;;;;;;;163.70;151.27;;;10.90;99.90;;;;;;5049031;28;20612;-80
2021/12/15 09:12:54;;;;;;;166.30;152.30;;;10.90;99.90;;;;;;5050984;28;20716;-80
2021/12/15 09:15:20;;;;;;;169.33;156.30;;;10.90;99.90;;;;;;5016987;28;20206;-79
2021/12/15 09:17:46;;;;;;;165.40;152.53;;;11.00;99.90;;;;;;5031085;28;20266;-79
2021/12/15 09:20:18;;;;;;;167.20;153.63;;;11.00;99.90;;;;;;5033182;28;20273;-80
2021/12/15 09:22:43;;;;;;;163.27;151.00;;;11.00;99.90;;;;;;5031502;28;20259;-80
2021/12/15 09:25:12;;;;;;;165.27;152.23;;;10.90;99.90;;;;;;5017472;28;20576;-79
2021/12/15 09:27:39;;;;;;;163.23;150.57;;;11.00;99.90;;;;;;5032158;28;20259;-80
2021/12/15 09:30:08;;;;;;;166.07;152.43;;;11.00;99.90;;;;;;5035232;28;20240;-78
2021/12/15 09:32:34;;;;;;;166.50;153.60;;;11.00;99.90;;;;;;5034426;28;20198;-80
2021/12/15 09:35:00;;;;;;;165.73;153.37;;;11.00;99.90;;;;;;5033358;28;20278;-78
2021/12/15 09:37:28;;;;;;;164.83;151.90;;;11.10;99.90;;;;;;5030748;28;20201;-80
2021/12/15 09:39:55;;;;;;;165.60;152.90;;;11.10;99.90;;;;;;5000946;28;20218;-80
2021/12/15 09:42:26;;;;;;;167.53;154.63;;;11.10;99.90;;;;;;5034285;28;20683;-81
2021/12/15 09:44:58;;;;;;;166.63;153.57;;;11.10;99.90;;;;;;5034277;28;20190;-80
2021/12/15 09:56:20;;;;;;;164.67;151.70;;;11.10;99.90;;;;;;5032583;28;21005;-79
2021/12/15 09:56:26;;;;;;;159.93;147.27;;;11.10;99.90;;;;;;5035010;28;20205;-79
2021/12/15 10:04:22;;;;;;;156.57;144.57;;;11.10;99.90;;;;;;5033446;28;20213;-79
2021/12/15 10:18:02;;;;;;;155.20;144.23;;;11.10;99.90;;;;;;5050728;28;20288;-81
2021/12/15 10:20:31;;;;;;;151.23;140.53;;;11.10;99.90;;;;;;5030581;28;20237;-80
2021/12/15 10:23:01;;;;;;;151.00;139.73;;;11.20;99.90;;;;;;5000084;28;20301;-81
2021/12/15 10:25:31;;;;;;;148.07;137.43;;;11.20;99.90;;;;;;5032271;28;20197;-80
2021/12/15 10:28:12;;;;;;;153.70;142.93;;;11.20;99.90;;;;;;5032029;28;20179;-80
2021/12/15 10:30:45;;;;;;;155.40;144.80;;;11.30;99.90;;;;;;5031140;28;20614;-81
2021/12/15 10:33:36;;;;;;;154.03;142.67;;;11.30;99.90;;;;;;5049741;28;20198;-79
2021/12/15 10:36:15;;;;;;;150.23;138.97;;;11.30;99.90;;;;;;5050356;28;20733;-79
2021/12/15 10:38:44;;;;;;;150.73;139.50;;;11.20;99.90;;;;;;5046658;28;20178;-80
2021/12/15 10:41:18;;;;;;;149.70;138.97;;;11.20;99.90;;;;;;5048061;28;20185;-79
2021/12/15 10:43:47;;;;;;;152.03;140.47;;;11.30;99.90;;;;;;5030405;28;20186;-80
2021/12/15 10:46:17;;;;;;;151.77;140.47;;;11.20;99.90;;;;;;5023999;28;20597;-79
2021/12/15 10:48:49;;;;;;;151.47;140.23;;;11.30;99.90;;;;;;5048326;28;20207;-81
2021/12/15 10:51:23;;;;;;;150.47;140.00;;;11.30;99.90;;;;;;5049699;28;20223;-79
2021/12/15 10:53:52;;;;;;;150.00;138.87;;;11.30;99.90;;;;;;5038316;28;20208;-80
2021/12/15 10:56:22;;;;;;;151.20;140.03;;;11.30;99.90;;;;;;5038986;28;20170;-80
2021/12/15 10:58:54;;;;;;;149.53;138.83;;;11.30;99.90;;;;;;5031275;28;20578;-80
2021/12/15 11:01:32;;;;;;;150.00;138.87;;;11.30;99.90;;;;;;5031801;28;20177;-80
2021/12/15 11:04:00;;;;;;;148.00;137.60;;;11.30;99.90;;;;;;5023128;28;20567;-79
2021/12/15 11:06:32;;;;;;;150.67;139.50;;;11.30;99.90;;;;;;5023446;28;20237;-80
2021/12/15 11:09:20;;;;;;;147.40;137.37;;;11.30;99.90;;;;;;5031686;28;20583;-79
2021/12/15 11:11:59;;;;;;;146.37;136.40;;;11.40;99.90;;;;;;5046979;28;20202;-80
2021/12/15 11:14:29;;;;;;;145.90;136.00;;;11.40;99.90;;;;;;5029440;28;20750;-79
2021/12/15 11:17:02;;;;;;;143.57;134.27;;;11.40;99.90;;;;;;5029320;28;20174;-80
2021/12/15 11:20:00;;;;;;;145.70;135.67;;;11.50;99.90;;;;;;5038423;28;20222;-80
2021/12/15 11:22:51;;;;;;;143.33;133.43;;;11.50;99.90;;;;;;5025095;28;20210;-80
2021/12/15 11:25:24;;;;;;;145.70;135.30;;;11.50;99.90;;;;;;5023026;28;21170;-80
2021/12/15 11:28:16;;;;;;;145.07;134.83;;;11.50;99.90;;;;;;5030677;28;20174;-80
2021/12/15 11:30:53;;;;;;;145.27;135.30;;;11.50;99.90;;;;;;5045634;28;20236;-80
2021/12/15 11:33:25;;;;;;;144.27;134.03;;;11.50;99.90;;;;;;5047157;28;20276;-79
2021/12/15 11:35:56;;;;;;;143.97;134.07;;;11.50;99.90;;;;;;5045740;28;20221;-79
2021/12/15 11:38:37;;;;;;;141.83;132.07;;;11.50;99.90;;;;;;5047123;28;21109;-79
2021/12/15 11:41:05;;;;;;;142.17;132.63;;;11.50;99.90;;;;;;5029800;28;20187;-79
2021/12/15 11:43:46;;;;;;;144.03;134.70;;;11.40;99.90;;;;;;5047991;28;20178;-79
2021/12/15 11:46:35;;;;;;;143.43;133.63;;;11.40;99.90;;;;;;5025784;28;20192;-80
2021/12/15 11:49:05;;;;;;;141.20;132.23;;;11.40;99.90;;;;;;5030934;28;20208;-79
2021/12/15 11:52:05;;;;;;;142.60;133.47;;;11.50;99.90;;;;;;5049715;28;20319;-80
2021/12/15 11:54:44;;;;;;;142.47;133.00;;;11.50;99.90;;;;;;5031562;28;20201;-81
2021/12/15 11:57:22;;;;;;;136.73;127.70;;;11.50;99.90;;;;;;5034813;28;20175;-81
2021/12/15 11:59:50;;;;;;;138.63;129.50;;;11.60;99.90;;;;;;5051877;28;20261;-80
2021/12/15 12:02:23;;;;;;;137.13;128.07;;;11.60;99.90;;;;;;5029160;28;20189;-80
2021/12/15 12:04:54;;;;;;;137.53;128.83;;;11.60;99.90;;;;;;5022808;28;20198;-80
2021/12/15 12:07:23;;;;;;;135.33;126.53;;;11.70;99.90;;;;;;5031098;28;20667;-81
2021/12/15 12:10:19;;;;;;;133.60;124.60;;;11.60;99.90;;;;;;5023472;28;20578;-80
2021/12/15 12:12:52;;;;;;;134.50;125.77;;;11.60;99.90;;;;;;5031675;28;20182;-79
2021/12/15 12:15:25;;;;;;;134.90;126.10;;;11.60;99.90;;;;;;5014346;28;20187;-80
2021/12/15 12:17:55;;;;;;;133.77;124.70;;;11.60;99.90;;;;;;5031267;28;20187;-80
2021/12/15 12:20:27;;;;;;;133.17;124.97;;;11.70;99.90;;;;;;5030181;28;20212;-79
2021/12/15 12:22:55;;;;;;;132.90;124.23;;;11.70;99.90;;;;;;5048605;28;20266;-80
2021/12/15 12:25:29;;;;;;;133.70;124.73;;;11.60;99.90;;;;;;5030089;28;20202;-80
2021/12/15 12:27:57;;;;;;;132.30;123.83;;;11.60;99.90;;;;;;5029577;28;20655;-80
2021/12/15 12:30:33;;;;;;;133.80;125.50;;;11.60;99.90;;;;;;5023197;28;20348;-81
2021/12/15 12:32:59;;;;;;;132.37;123.83;;;11.60;99.90;;;;;;5046981;28;20635;-80
2021/12/15 12:35:32;;;;;;;134.30;124.40;;;11.60;99.90;;;;;;5020835;28;20203;-80
2021/12/15 12:38:01;;;;;;;132.97;124.53;;;11.60;99.90;;;;;;5030548;28;20182;-81
2021/12/15 12:40:33;;;;;;;130.07;121.73;;;11.60;99.90;;;;;;5029553;28;20195;-79
2021/12/15 12:42:59;;;;;;;132.03;123.50;;;11.60;99.90;;;;;;5032314;28;20229;-79
2021/12/15 12:45:37;;;;;;;132.23;123.53;;;11.60;99.90;;;;;;5011103;28;20613;-80
2021/12/15 12:48:35;;;;;;;133.43;124.77;;;11.60;99.90;;;;;;5035260;28;20277;-80
2021/12/15 12:59:56;;;;;;;135.33;126.43;;;11.60;99.90;;;;;;5031539;28;20233;-80
2021/12/15 13:02:32;;;;;;;136.13;127.47;;;11.70;99.90;;;;;;5031038;28;20509;-79
2021/12/15 13:04:58;;;;;;;137.07;128.13;;;11.60;99.90;;;;;;5024006;28;20257;-80
2021/12/15 13:07:52;;;;;;;135.87;127.00;;;11.70;99.90;;;;;;4991271;28;20194;-80
2021/12/15 13:10:20;;;;;;;137.60;128.50;;;11.60;99.90;;;;;;5032642;28;20284;-80
2021/12/15 13:12:49;;;;;;;136.53;127.07;;;11.60;99.90;;;;;;5030294;28;20762;-80
2021/12/15 13:15:21;;;;;;;137.57;127.60;;;11.60;99.90;;;;;;4996634;28;20685;-80
2021/12/15 13:18:01;;;;;;;138.80;128.97;;;11.60;99.90;;;;;;5030441;28;20877;-80
2021/12/15 13:20:30;;;;;;;137.23;128.73;;;11.60;99.90;;;;;;5030659;28;20199;-79
2021/12/15 13:23:28;;;;;;;137.57;129.13;;;11.70;99.90;;;;;;5028644;28;20196;-80
2021/12/15 13:28:44;;;;;;;138.33;129.33;;;11.60;99.90;;;;;;5016217;28;20263;-81
2021/12/15 13:31:18;;;;;;;134.70;126.00;;;11.60;99.90;;;;;;5030675;28;20183;-80
2021/12/15 13:33:49;;;;;;;136.53;127.37;;;11.60;99.90;;;;;;5030168;28;21051;-80
2021/12/15 13:36:20;;;;;;;135.40;126.17;;;11.60;99.90;;;;;;5030460;28;20188;-81
2021/12/15 13:38:54;;;;;;;138.90;128.83;;;11.60;99.90;;;;;;5029640;28;20194;-79
2021/12/15 13:44:23;;;;;;;139.87;130.87;;;11.70;99.90;;;;;;5030622;28;20187;-81
2021/12/15 13:46:55;;;;;;;138.53;129.00;;;11.60;99.90;;;;;;5022929;28;20227;-79
2021/12/15 13:49:28;;;;;;;137.73;128.90;;;11.60;99.90;;;;;;5030047;28;20214;-81